sensor_id;sensor_type;location;lat;lon;timestamp;pressure;altitude;pressure_sealevel;temperature;humidity
7200;BME280;3641;49.082;8.200;2023-04-08T00:00:52;100710.56;;;9.12;80.57
7200;BME280;3641;49.082;8.200;2023-04-08T00:03:19;100703.31;;;9.37;77.65
7200;BME280;3641;49.082;8.200;2023-04-08T00:05:47;100709.78;;;9.52;75.43
7200;BME280;3641;49.082;8.200;2023-04-08T00:08:13;100701.94;;;9.41;76.57
7200;BME280;3641;49.082;8.200;2023-04-08T00:10:40;100704.16;;;9.45;77.80
7200;BME280;3641;49.082;8.200;2023-04-08T00:13:06;100710.75;;;9.18;80.42
7200;BME280;3641;49.082;8.200;2023-04-08T00:15:32;100710.22;;;9.06;80.45
7200;BME280;3641;49.082;8.200;2023-04-08T00:17:59;100714.53;;;9.25;76.73
7200;BME280;3641;49.082;8.200;2023-04-08T00:20:26;100717.94;;;9.36;75.47
7200;BME280;3641;49.082;8.200;2023-04-08T00:22:54;100713.88;;;9.40;75.28
7200;BME280;3641;49.082;8.200;2023-04-08T00:25:20;100719.66;;;9.37;75.83
7200;BME280;3641;49.082;8.200;2023-04-08T00:27:47;100714.88;;;9.31;75.47
7200;BME280;3641;49.082;8.200;2023-04-08T00:30:13;100709.44;;;9.47;74.41
7200;BME280;3641;49.082;8.200;2023-04-08T00:32:40;100712.31;;;9.45;75.51
7200;BME280;3641;49.082;8.200;2023-04-08T00:35:07;100703.81;;;9.40;75.05
7200;BME280;3641;49.082;8.200;2023-04-08T00:37:33;100709.94;;;9.51;73.55
7200;BME280;3641;49.082;8.200;2023-04-08T00:40:01;100709.78;;;9.52;73.81
7200;BME280;3641;49.082;8.200;2023-04-08T00:42:29;100707.72;;;9.46;74.61
7200;BME280;3641;49.082;8.200;2023-04-08T00:44:56;100709.25;;;9.49;74.58
7200;BME280;3641;49.082;8.200;2023-04-08T00:47:22;100705.16;;;9.36;75.60
7200;BME280;3641;49.082;8.200;2023-04-08T00:49:49;100708.56;;;9.30;76.85
7200;BME280;3641;49.082;8.200;2023-04-08T00:52:15;100704.16;;;9.37;75.77
7200;BME280;3641;49.082;8.200;2023-04-08T00:54:42;100714.03;;;9.47;74.78
7200;BME280;3641;49.082;8.200;2023-04-08T00:57:10;100715.88;;;9.46;75.38
7200;BME280;3641;49.082;8.200;2023-04-08T00:59:36;100712.50;;;9.36;79.96
7200;BME280;3641;49.082;8.200;2023-04-08T01:02:10;100715.13;;;9.03;82.56
7200;BME280;3641;49.082;8.200;2023-04-08T01:04:43;100721.84;;;9.33;76.04
7200;BME280;3641;49.082;8.200;2023-04-08T01:07:14;100721.00;;;9.33;76.60
7200;BME280;3641;49.082;8.200;2023-04-08T01:09:46;100713.69;;;9.41;76.18
7200;BME280;3641;49.082;8.200;2023-04-08T01:12:18;100720.66;;;9.44;74.79
7200;BME280;3641;49.082;8.200;2023-04-08T01:14:46;100721.34;;;9.30;77.21
7200;BME280;3641;49.082;8.200;2023-04-08T01:17:14;100719.41;;;9.05;81.82
7200;BME280;3641;49.082;8.200;2023-04-08T01:19:42;100723.53;;;9.26;77.37
7200;BME280;3641;49.082;8.200;2023-04-08T01:22:16;100722.88;;;9.32;77.75
7200;BME280;3641;49.082;8.200;2023-04-08T01:24:46;100725.78;;;9.31;77.38
7200;BME280;3641;49.082;8.200;2023-04-08T01:27:17;100719.16;;;9.41;75.42
7200;BME280;3641;49.082;8.200;2023-04-08T01:29:46;100721.00;;;9.33;76.93
7200;BME280;3641;49.082;8.200;2023-04-08T01:32:14;100730.00;;;9.33;78.05
7200;BME280;3641;49.082;8.200;2023-04-08T01:34:42;100728.16;;;9.25;77.50
7200;BME280;3641;49.082;8.200;2023-04-08T01:37:10;100729.84;;;9.26;77.00
7200;BME280;3641;49.082;8.200;2023-04-08T01:39:39;100729.81;;;9.10;80.41
7200;BME280;3641;49.082;8.200;2023-04-08T01:42:07;100720.50;;;9.29;76.80
7200;BME280;3641;49.082;8.200;2023-04-08T01:44:36;100719.81;;;9.27;76.76
7200;BME280;3641;49.082;8.200;2023-04-08T01:47:04;100719.56;;;9.04;81.90
7200;BME280;3641;49.082;8.200;2023-04-08T01:49:32;100714.97;;;9.04;79.10
7200;BME280;3641;49.082;8.200;2023-04-08T01:51:59;100714.00;;;9.22;77.01
7200;BME280;3641;49.082;8.200;2023-04-08T01:54:27;100719.09;;;9.17;78.14
7200;BME280;3641;49.082;8.200;2023-04-08T01:56:54;100707.88;;;9.20;77.17
7200;BME280;3641;49.082;8.200;2023-04-08T01:59:23;100709.91;;;9.18;77.16
7200;BME280;3641;49.082;8.200;2023-04-08T02:01:55;100713.47;;;9.18;77.40
7200;BME280;3641;49.082;8.200;2023-04-08T02:04:22;100711.81;;;9.25;76.46
7200;BME280;3641;49.082;8.200;2023-04-08T02:06:49;100713.50;;;9.26;76.11
7200;BME280;3641;49.082;8.200;2023-04-08T02:09:15;100714.00;;;9.22;76.27
7200;BME280;3641;49.082;8.200;2023-04-08T02:11:41;100712.47;;;9.19;76.82
7200;BME280;3641;49.082;8.200;2023-04-08T02:14:08;100712.41;;;9.03;79.03
7200;BME280;3641;49.082;8.200;2023-04-08T02:16:38;100720.22;;;8.98;78.45
7200;BME280;3641;49.082;8.200;2023-04-08T02:19:10;100712.81;;;9.16;76.45
7200;BME280;3641;49.082;8.200;2023-04-08T02:21:43;100717.22;;;9.17;76.44
7200;BME280;3641;49.082;8.200;2023-04-08T02:24:12;100719.09;;;9.25;76.12
7200;BME280;3641;49.082;8.200;2023-04-08T02:26:39;100711.94;;;9.16;76.45
7200;BME280;3641;49.082;8.200;2023-04-08T02:29:11;100713.94;;;8.97;81.37
7200;BME280;3641;49.082;8.200;2023-04-08T02:31:40;100717.50;;;8.89;78.48
7200;BME280;3641;49.082;8.200;2023-04-08T02:34:09;100717.19;;;9.09;77.48
7200;BME280;3641;49.082;8.200;2023-04-08T02:36:36;100724.41;;;8.76;79.86
7200;BME280;3641;49.082;8.200;2023-04-08T02:39:05;100724.53;;;9.08;77.64
7200;BME280;3641;49.082;8.200;2023-04-08T02:41:32;100717.19;;;9.09;77.34
7200;BME280;3641;49.082;8.200;2023-04-08T02:43:58;100727.44;;;8.64;82.51
7200;BME280;3641;49.082;8.200;2023-04-08T02:46:25;100724.53;;;8.66;81.88
7200;BME280;3641;49.082;8.200;2023-04-08T02:48:52;100718.06;;;8.59;84.77
7200;BME280;3641;49.082;8.200;2023-04-08T02:51:20;100725.16;;;8.94;77.78
7200;BME280;3641;49.082;8.200;2023-04-08T02:53:46;100722.28;;;8.96;78.51
7200;BME280;3641;49.082;8.200;2023-04-08T02:56:13;100718.31;;;8.82;81.09
7200;BME280;3641;49.082;8.200;2023-04-08T02:58:39;100722.91;;;8.81;83.26
7200;BME280;3641;49.082;8.200;2023-04-08T03:01:06;100727.53;;;8.89;79.11
7200;BME280;3641;49.082;8.200;2023-04-08T03:03:32;100729.63;;;9.03;79.43
7200;BME280;3641;49.082;8.200;2023-04-08T03:05:59;100733.53;;;9.01;80.21
7200;BME280;3641;49.082;8.200;2023-04-08T03:08:27;100721.78;;;8.92;79.19
7200;BME280;3641;49.082;8.200;2023-04-08T03:10:53;100723.63;;;8.91;78.70
7200;BME280;3641;49.082;8.200;2023-04-08T03:13:20;100720.91;;;9.00;81.42
7200;BME280;3641;49.082;8.200;2023-04-08T03:15:46;100721.47;;;8.61;86.94
7200;BME280;3641;49.082;8.200;2023-04-08T03:18:13;100724.66;;;8.90;81.58
7200;BME280;3641;49.082;8.200;2023-04-08T03:20:39;100726.25;;;8.41;89.24
7200;BME280;3641;49.082;8.200;2023-04-08T03:23:06;100719.22;;;8.56;87.29
7200;BME280;3641;49.082;8.200;2023-04-08T03:25:33;100722.09;;;8.46;88.28
7200;BME280;3641;49.082;8.200;2023-04-08T03:28:00;100725.53;;;8.30;90.36
7200;BME280;3641;49.082;8.200;2023-04-08T03:30:26;100724.47;;;8.49;89.14
7200;BME280;3641;49.082;8.200;2023-04-08T03:32:53;100727.28;;;8.40;90.21
7200;BME280;3641;49.082;8.200;2023-04-08T03:35:19;100726.41;;;8.57;86.60
7200;BME280;3641;49.082;8.200;2023-04-08T03:37:46;100730.25;;;8.20;91.76
7200;BME280;3641;49.082;8.200;2023-04-08T03:40:12;100738.31;;;8.12;92.32
7200;BME280;3641;49.082;8.200;2023-04-08T03:42:40;100737.09;;;8.32;90.41
7200;BME280;3641;49.082;8.200;2023-04-08T03:45:07;100735.84;;;8.45;87.52
7200;BME280;3641;49.082;8.200;2023-04-08T03:47:34;100730.78;;;8.24;91.72
7200;BME280;3641;49.082;8.200;2023-04-08T03:50:00;100729.66;;;8.08;93.33
7200;BME280;3641;49.082;8.200;2023-04-08T03:52:27;100736.34;;;7.96;94.41
7200;BME280;3641;49.082;8.200;2023-04-08T03:54:54;100734.19;;;8.26;88.68
7200;BME280;3641;49.082;8.200;2023-04-08T03:57:20;100735.81;;;7.92;94.36
7200;BME280;3641;49.082;8.200;2023-04-08T03:59:48;100736.44;;;8.04;93.68
7200;BME280;3641;49.082;8.200;2023-04-08T04:02:14;100732.38;;;8.34;86.76
7200;BME280;3641;49.082;8.200;2023-04-08T04:04:41;100730.97;;;8.57;83.95
7200;BME280;3641;49.082;8.200;2023-04-08T04:07:07;100736.69;;;8.45;89.08
7200;BME280;3641;49.082;8.200;2023-04-08T04:09:34;100729.81;;;8.33;90.62
7200;BME280;3641;49.082;8.200;2023-04-08T04:12:00;100737.56;;;8.46;89.66
7200;BME280;3641;49.082;8.200;2023-04-08T04:14:27;100735.56;;;8.56;87.80
7200;BME280;3641;49.082;8.200;2023-04-08T04:16:54;100735.94;;;8.69;83.74
7200;BME280;3641;49.082;8.200;2023-04-08T04:19:21;100732.56;;;8.76;82.69
7200;BME280;3641;49.082;8.200;2023-04-08T04:21:47;100738.09;;;8.49;85.72
7200;BME280;3641;49.082;8.200;2023-04-08T04:24:14;100745.63;;;8.64;82.99
7200;BME280;3641;49.082;8.200;2023-04-08T04:26:40;100735.34;;;8.23;92.07
7200;BME280;3641;49.082;8.200;2023-04-08T04:29:07;100741.97;;;8.21;92.61
7200;BME280;3641;49.082;8.200;2023-04-08T04:31:33;100739.50;;;8.62;82.96
7200;BME280;3641;49.082;8.200;2023-04-08T04:34:01;100746.94;;;8.51;88.66
7200;BME280;3641;49.082;8.200;2023-04-08T04:36:27;100746.13;;;8.33;90.26
7200;BME280;3641;49.082;8.200;2023-04-08T04:38:55;100740.94;;;7.95;94.23
7200;BME280;3641;49.082;8.200;2023-04-08T04:41:21;100743.88;;;8.28;87.76
7200;BME280;3641;49.082;8.200;2023-04-08T04:43:48;100741.19;;;8.63;82.80
7200;BME280;3641;49.082;8.200;2023-04-08T04:46:14;100746.44;;;8.30;91.20
7200;BME280;3641;49.082;8.200;2023-04-08T04:48:41;100743.53;;;8.49;87.38
7200;BME280;3641;49.082;8.200;2023-04-08T04:51:09;100746.56;;;8.20;90.81
7200;BME280;3641;49.082;8.200;2023-04-08T04:53:35;100756.34;;;8.13;92.87
7200;BME280;3641;49.082;8.200;2023-04-08T04:56:02;100753.69;;;7.95;94.47
7200;BME280;3641;49.082;8.200;2023-04-08T04:58:28;100754.09;;;7.82;96.56
7200;BME280;3641;49.082;8.200;2023-04-08T05:00:55;100756.63;;;8.28;86.82
7200;BME280;3641;49.082;8.200;2023-04-08T05:03:22;100763.25;;;8.51;84.61
7200;BME280;3641;49.082;8.200;2023-04-08T05:05:50;100763.34;;;8.15;90.79
7200;BME280;3641;49.082;8.200;2023-04-08T05:08:18;100764.63;;;8.03;92.85
7200;BME280;3641;49.082;8.200;2023-04-08T05:10:44;100764.16;;;8.08;91.73
7200;BME280;3641;49.082;8.200;2023-04-08T05:13:11;100773.50;;;8.31;87.06
7200;BME280;3641;49.082;8.200;2023-04-08T05:15:37;100765.53;;;8.38;86.74
7200;BME280;3641;49.082;8.200;2023-04-08T05:18:03;100770.50;;;8.43;88.22
7200;BME280;3641;49.082;8.200;2023-04-08T05:20:30;100775.81;;;8.44;85.03
7200;BME280;3641;49.082;8.200;2023-04-08T05:22:56;100778.09;;;8.57;84.37
7200;BME280;3641;49.082;8.200;2023-04-08T05:25:24;100786.25;;;8.57;86.09
7200;BME280;3641;49.082;8.200;2023-04-08T05:27:51;100783.56;;;8.65;84.56
7200;BME280;3641;49.082;8.200;2023-04-08T05:30:18;100785.66;;;8.45;89.73
7200;BME280;3641;49.082;8.200;2023-04-08T05:32:45;100778.78;;;7.89;95.28
7200;BME280;3641;49.082;8.200;2023-04-08T05:35:11;100784.28;;;8.23;91.24
7200;BME280;3641;49.082;8.200;2023-04-08T05:37:38;100776.22;;;8.58;84.26
7200;BME280;3641;49.082;8.200;2023-04-08T05:40:05;100782.94;;;8.71;82.71
7200;BME280;3641;49.082;8.200;2023-04-08T05:42:33;100786.00;;;8.77;81.51
7200;BME280;3641;49.082;8.200;2023-04-08T05:45:00;100790.53;;;8.68;84.19
7200;BME280;3641;49.082;8.200;2023-04-08T05:47:26;100789.34;;;8.36;88.01
7200;BME280;3641;49.082;8.200;2023-04-08T05:49:53;100790.22;;;8.71;83.08
7200;BME280;3641;49.082;8.200;2023-04-08T05:52:19;100797.41;;;8.80;83.96
7200;BME280;3641;49.082;8.200;2023-04-08T05:54:46;100807.94;;;8.75;85.40
7200;BME280;3641;49.082;8.200;2023-04-08T05:57:13;100803.91;;;8.79;84.98
7200;BME280;3641;49.082;8.200;2023-04-08T05:59:42;100807.31;;;8.55;88.90
7200;BME280;3641;49.082;8.200;2023-04-08T06:02:08;100805.66;;;8.36;92.12
7200;BME280;3641;49.082;8.200;2023-04-08T06:04:35;100805.00;;;8.42;90.75
7200;BME280;3641;49.082;8.200;2023-04-08T06:07:01;100817.06;;;8.40;90.37
7200;BME280;3641;49.082;8.200;2023-04-08T06:09:28;100809.09;;;8.72;85.66
7200;BME280;3641;49.082;8.200;2023-04-08T06:11:55;100814.06;;;8.77;87.05
7200;BME280;3641;49.082;8.200;2023-04-08T06:14:22;100810.88;;;8.82;83.97
7200;BME280;3641;49.082;8.200;2023-04-08T06:16:49;100813.09;;;8.86;82.85
7200;BME280;3641;49.082;8.200;2023-04-08T06:19:17;100817.13;;;8.74;87.85
7200;BME280;3641;49.082;8.200;2023-04-08T06:21:43;100812.50;;;8.66;87.26
7200;BME280;3641;49.082;8.200;2023-04-08T06:24:10;100815.50;;;8.89;83.40
7200;BME280;3641;49.082;8.200;2023-04-08T06:26:36;100821.22;;;8.78;86.28
7200;BME280;3641;49.082;8.200;2023-04-08T06:29:03;100815.31;;;8.83;85.09
7200;BME280;3641;49.082;8.200;2023-04-08T06:31:29;100816.38;;;8.98;83.26
7200;BME280;3641;49.082;8.200;2023-04-08T06:33:57;100819.06;;;8.90;84.32
7200;BME280;3641;49.082;8.200;2023-04-08T06:36:24;100826.56;;;8.88;84.24
7200;BME280;3641;49.082;8.200;2023-04-08T06:38:50;100819.84;;;8.74;86.20
7200;BME280;3641;49.082;8.200;2023-04-08T06:41:17;100828.66;;;9.02;82.40
7200;BME280;3641;49.082;8.200;2023-04-08T06:43:43;100829.34;;;9.04;82.13
7200;BME280;3641;49.082;8.200;2023-04-08T06:46:10;100830.09;;;9.15;83.38
7200;BME280;3641;49.082;8.200;2023-04-08T06:48:36;100832.97;;;9.13;81.42
7200;BME280;3641;49.082;8.200;2023-04-08T06:51:04;100842.31;;;9.11;82.80
7200;BME280;3641;49.082;8.200;2023-04-08T06:53:32;100837.91;;;9.09;81.82
7200;BME280;3641;49.082;8.200;2023-04-08T06:55:58;100834.09;;;9.02;82.94
7200;BME280;3641;49.082;8.200;2023-04-08T06:58:25;100843.34;;;9.09;82.14
7200;BME280;3641;49.082;8.200;2023-04-08T07:00:52;100842.31;;;9.11;82.10
7200;BME280;3641;49.082;8.200;2023-04-08T07:03:19;100846.13;;;9.26;80.40
7200;BME280;3641;49.082;8.200;2023-04-08T07:05:46;100847.00;;;9.35;79.60
7200;BME280;3641;49.082;8.200;2023-04-08T07:08:14;100851.22;;;9.21;82.24
7200;BME280;3641;49.082;8.200;2023-04-08T07:10:40;100848.81;;;9.18;81.58
7200;BME280;3641;49.082;8.200;2023-04-08T07:13:07;100853.84;;;9.39;79.57
7200;BME280;3641;49.082;8.200;2023-04-08T07:15:33;100853.66;;;9.40;79.76
7200;BME280;3641;49.082;8.200;2023-04-08T07:18:00;100856.72;;;9.37;80.05
7200;BME280;3641;49.082;8.200;2023-04-08T07:20:27;100856.88;;;9.36;81.12
7200;BME280;3641;49.082;8.200;2023-04-08T07:22:53;100861.09;;;9.30;81.25
7200;BME280;3641;49.082;8.200;2023-04-08T07:25:21;100860.94;;;9.32;81.46
7200;BME280;3641;49.082;8.200;2023-04-08T07:27:47;100867.59;;;9.29;81.84
7200;BME280;3641;49.082;8.200;2023-04-08T07:30:14;100864.91;;;9.37;80.94
7200;BME280;3641;49.082;8.200;2023-04-08T07:32:40;100864.53;;;9.24;81.19
7200;BME280;3641;49.082;8.200;2023-04-08T07:35:07;100864.69;;;9.22;81.82
7200;BME280;3641;49.082;8.200;2023-04-08T07:37:34;100872.13;;;9.20;80.62
7200;BME280;3641;49.082;8.200;2023-04-08T07:40:00;100867.25;;;9.24;80.39
7200;BME280;3641;49.082;8.200;2023-04-08T07:42:28;100870.69;;;9.34;80.88
7200;BME280;3641;49.082;8.200;2023-04-08T07:44:54;100877.56;;;9.55;78.77
7200;BME280;3641;49.082;8.200;2023-04-08T07:47:21;100876.16;;;9.51;80.23
7200;BME280;3641;49.082;8.200;2023-04-08T07:49:47;100874.84;;;9.55;79.67
7200;BME280;3641;49.082;8.200;2023-04-08T07:52:14;100878.25;;;9.65;78.97
7200;BME280;3641;49.082;8.200;2023-04-08T07:54:40;100873.69;;;9.66;78.76
7200;BME280;3641;49.082;8.200;2023-04-08T07:57:07;100867.22;;;9.75;79.07
7200;BME280;3641;49.082;8.200;2023-04-08T07:59:35;100878.47;;;9.80;79.13
7200;BME280;3641;49.082;8.200;2023-04-08T08:02:01;100878.16;;;9.83;78.28
7200;BME280;3641;49.082;8.200;2023-04-08T08:04:27;100873.53;;;9.75;77.82
7200;BME280;3641;49.082;8.200;2023-04-08T08:06:54;100882.41;;;9.94;77.71
7200;BME280;3641;49.082;8.200;2023-04-08T08:09:20;100887.34;;;9.90;76.84
7200;BME280;3641;49.082;8.200;2023-04-08T08:11:47;100889.88;;;9.75;77.21
7200;BME280;3641;49.082;8.200;2023-04-08T08:14:14;100893.44;;;9.68;77.18
7200;BME280;3641;49.082;8.200;2023-04-08T08:16:41;100895.19;;;9.77;77.44
7200;BME280;3641;49.082;8.200;2023-04-08T08:19:08;100893.31;;;9.94;77.19
7200;BME280;3641;49.082;8.200;2023-04-08T08:21:36;100904.59;;;9.91;76.77
7200;BME280;3641;49.082;8.200;2023-04-08T08:24:03;100905.03;;;9.78;76.72
7200;BME280;3641;49.082;8.200;2023-04-08T08:26:30;100908.81;;;9.77;75.73
7200;BME280;3641;49.082;8.200;2023-04-08T08:28:57;100911.91;;;9.98;75.79
7200;BME280;3641;49.082;8.200;2023-04-08T08:31:23;100912.22;;;9.79;75.17
7200;BME280;3641;49.082;8.200;2023-04-08T08:33:51;100914.94;;;9.87;74.80
7200;BME280;3641;49.082;8.200;2023-04-08T08:36:17;100909.00;;;10.00;74.88
7200;BME280;3641;49.082;8.200;2023-04-08T08:38:44;100921.13;;;9.89;74.65
7200;BME280;3641;49.082;8.200;2023-04-08T08:41:10;100908.19;;;10.16;74.46
7200;BME280;3641;49.082;8.200;2023-04-08T08:43:37;100903.78;;;10.31;74.16
7200;BME280;3641;49.082;8.200;2023-04-08T08:46:05;100909.91;;;10.17;74.23
7200;BME280;3641;49.082;8.200;2023-04-08T08:48:35;100912.50;;;10.35;74.06
7200;BME280;3641;49.082;8.200;2023-04-08T08:51:08;100905.16;;;10.60;73.70
7200;BME280;3641;49.082;8.200;2023-04-08T08:53:34;100911.28;;;10.70;72.75
7200;BME280;3641;49.082;8.200;2023-04-08T08:56:01;100909.59;;;10.78;72.75
7200;BME280;3641;49.082;8.200;2023-04-08T08:58:28;100907.69;;;10.86;71.91
7200;BME280;3641;49.082;8.200;2023-04-08T09:00:54;100916.25;;;10.83;72.18
7200;BME280;3641;49.082;8.200;2023-04-08T09:03:22;100915.34;;;10.91;72.47
7200;BME280;3641;49.082;8.200;2023-04-08T09:05:50;100908.38;;;10.88;72.57
7200;BME280;3641;49.082;8.200;2023-04-08T09:08:30;100910.94;;;10.90;72.16
7200;BME280;3641;49.082;8.200;2023-04-08T09:11:10;100916.56;;;10.97;70.61
7200;BME280;3641;49.082;8.200;2023-04-08T09:13:37;100914.25;;;11.25;69.88
7200;BME280;3641;49.082;8.200;2023-04-08T09:16:05;100911.53;;;11.25;69.41
7200;BME280;3641;49.082;8.200;2023-04-08T09:18:33;100902.31;;;11.18;70.38
7200;BME280;3641;49.082;8.200;2023-04-08T09:21:00;100913.03;;;11.27;71.41
7200;BME280;3641;49.082;8.200;2023-04-08T09:23:38;100914.25;;;11.25;69.56
7200;BME280;3641;49.082;8.200;2023-04-08T09:26:09;100912.34;;;11.34;69.48
7200;BME280;3641;49.082;8.200;2023-04-08T09:28:36;100916.66;;;11.20;69.96
7200;BME280;3641;49.082;8.200;2023-04-08T09:31:17;100911.84;;;11.30;68.65
7200;BME280;3641;49.082;8.200;2023-04-08T09:33:43;100911.72;;;11.55;68.75
7200;BME280;3641;49.082;8.200;2023-04-08T09:36:10;100915.50;;;11.54;69.76
7200;BME280;3641;49.082;8.200;2023-04-08T09:38:38;100915.81;;;11.59;69.44
7200;BME280;3641;49.082;8.200;2023-04-08T09:41:06;100909.53;;;11.58;67.53
7200;BME280;3641;49.082;8.200;2023-04-08T09:43:35;100915.06;;;11.73;66.24
7200;BME280;3641;49.082;8.200;2023-04-08T09:46:09;100914.59;;;11.70;66.10
7200;BME280;3641;49.082;8.200;2023-04-08T09:48:39;100915.75;;;11.75;65.50
7200;BME280;3641;49.082;8.200;2023-04-08T09:51:07;100914.41;;;11.71;62.97
7200;BME280;3641;49.082;8.200;2023-04-08T09:53:45;100921.91;;;11.69;63.43
7200;BME280;3641;49.082;8.200;2023-04-08T09:56:13;100920.22;;;11.68;62.72
7200;BME280;3641;49.082;8.200;2023-04-08T09:58:45;100921.06;;;11.69;59.31
7200;BME280;3641;49.082;8.200;2023-04-08T10:01:15;100928.44;;;11.68;58.06
7200;BME280;3641;49.082;8.200;2023-04-08T10:03:48;100918.38;;;11.60;56.18
7200;BME280;3641;49.082;8.200;2023-04-08T10:06:17;100923.38;;;11.57;57.27
7200;BME280;3641;49.082;8.200;2023-04-08T10:08:47;100916.78;;;11.74;57.51
7200;BME280;3641;49.082;8.200;2023-04-08T10:11:14;100921.69;;;11.87;60.99
7200;BME280;3641;49.082;8.200;2023-04-08T10:13:41;100913.22;;;12.05;61.51
7200;BME280;3641;49.082;8.200;2023-04-08T10:16:18;100920.94;;;12.25;58.05
7200;BME280;3641;49.082;8.200;2023-04-08T10:18:46;100915.94;;;12.28;59.04
7200;BME280;3641;49.082;8.200;2023-04-08T10:21:38;100916.84;;;12.44;57.08
7200;BME280;3641;49.082;8.200;2023-04-08T10:24:10;100916.84;;;12.67;51.64
7200;BME280;3641;49.082;8.200;2023-04-08T10:26:38;100915.16;;;12.81;54.05
7200;BME280;3641;49.082;8.200;2023-04-08T10:29:30;100905.06;;;12.96;54.84
7200;BME280;3641;49.082;8.200;2023-04-08T10:31:57;100907.63;;;13.13;54.25
7200;BME280;3641;49.082;8.200;2023-04-08T10:34:25;100915.75;;;12.91;56.15
7200;BME280;3641;49.082;8.200;2023-04-08T10:36:53;100920.41;;;13.05;57.73
7200;BME280;3641;49.082;8.200;2023-04-08T10:39:23;100918.13;;;13.09;52.89
7200;BME280;3641;49.082;8.200;2023-04-08T10:41:50;100909.34;;;12.99;54.84
7200;BME280;3641;49.082;8.200;2023-04-08T10:44:18;100916.97;;;12.88;52.68
7200;BME280;3641;49.082;8.200;2023-04-08T10:46:45;100907.34;;;12.93;54.13
7200;BME280;3641;49.082;8.200;2023-04-08T10:49:13;100912.19;;;12.52;53.15
7200;BME280;3641;49.082;8.200;2023-04-08T10:51:41;100915.66;;;12.46;54.48
7200;BME280;3641;49.082;8.200;2023-04-08T10:54:09;100910.75;;;12.57;55.22
7200;BME280;3641;49.082;8.200;2023-04-08T10:56:43;100913.88;;;12.53;49.08
7200;BME280;3641;49.082;8.200;2023-04-08T10:59:10;100917.41;;;12.39;51.11
7200;BME280;3641;49.082;8.200;2023-04-08T11:01:37;100918.75;;;12.43;52.29
7200;BME280;3641;49.082;8.200;2023-04-08T11:04:14;100914.84;;;12.38;51.68
7200;BME280;3641;49.082;8.200;2023-04-08T11:06:43;100911.78;;;12.56;56.58
7200;BME280;3641;49.082;8.200;2023-04-08T11:09:10;100914.31;;;12.42;54.82
7200;BME280;3641;49.082;8.200;2023-04-08T11:11:39;100906.69;;;12.29;54.57
7200;BME280;3641;49.082;8.200;2023-04-08T11:14:06;100906.94;;;12.43;56.11
7200;BME280;3641;49.082;8.200;2023-04-08T11:16:33;100912.38;;;12.51;55.22
7200;BME280;3641;49.082;8.200;2023-04-08T11:19:01;100913.69;;;12.09;57.04
7200;BME280;3641;49.082;8.200;2023-04-08T11:21:29;100905.94;;;12.21;59.25
7200;BME280;3641;49.082;8.200;2023-04-08T11:23:56;100917.41;;;12.16;57.25
7200;BME280;3641;49.082;8.200;2023-04-08T11:26:24;100907.25;;;12.25;58.90
7200;BME280;3641;49.082;8.200;2023-04-08T11:28:53;100907.72;;;12.28;58.80
7200;BME280;3641;49.082;8.200;2023-04-08T11:31:21;100909.75;;;12.34;57.98
7200;BME280;3641;49.082;8.200;2023-04-08T11:33:48;100907.44;;;12.23;53.98
7200;BME280;3641;49.082;8.200;2023-04-08T11:36:17;100909.94;;;12.10;50.33
7200;BME280;3641;49.082;8.200;2023-04-08T11:38:45;100899.53;;;12.05;55.22
7200;BME280;3641;49.082;8.200;2023-04-08T11:41:13;100914.94;;;11.98;52.61
7200;BME280;3641;49.082;8.200;2023-04-08T11:43:50;100905.00;;;12.05;52.57
7200;BME280;3641;49.082;8.200;2023-04-08T11:46:18;100903.41;;;12.11;56.56
7200;BME280;3641;49.082;8.200;2023-04-08T11:48:56;100899.94;;;12.17;58.45
7200;BME280;3641;49.082;8.200;2023-04-08T11:51:23;100904.69;;;12.23;56.01
7200;BME280;3641;49.082;8.200;2023-04-08T11:53:49;100907.91;;;12.27;56.24
7200;BME280;3641;49.082;8.200;2023-04-08T11:56:16;100909.03;;;12.17;54.83
7200;BME280;3641;49.082;8.200;2023-04-08T11:58:43;100909.38;;;12.14;53.59
7200;BME280;3641;49.082;8.200;2023-04-08T12:01:10;100907.84;;;11.80;51.95
7200;BME280;3641;49.082;8.200;2023-04-08T12:03:37;100908.34;;;11.84;53.42
7200;BME280;3641;49.082;8.200;2023-04-08T12:06:04;100914.00;;;11.82;56.15
7200;BME280;3641;49.082;8.200;2023-04-08T12:08:33;100910.38;;;11.90;56.79
7200;BME280;3641;49.082;8.200;2023-04-08T12:10:59;100916.03;;;11.89;55.32
7200;BME280;3641;49.082;8.200;2023-04-08T12:13:26;100912.66;;;11.78;55.14
7200;BME280;3641;49.082;8.200;2023-04-08T12:15:53;100911.31;;;11.74;54.59
7200;BME280;3641;49.082;8.200;2023-04-08T12:18:19;100915.50;;;11.93;56.35
7200;BME280;3641;49.082;8.200;2023-04-08T12:20:48;100909.44;;;11.75;54.37
7200;BME280;3641;49.082;8.200;2023-04-08T12:23:14;100907.72;;;11.74;55.97
7200;BME280;3641;49.082;8.200;2023-04-08T12:25:41;100901.28;;;11.67;56.24
7200;BME280;3641;49.082;8.200;2023-04-08T12:28:07;100908.41;;;11.76;57.27
7200;BME280;3641;49.082;8.200;2023-04-08T12:30:35;100907.00;;;11.80;55.71
7200;BME280;3641;49.082;8.200;2023-04-08T12:33:02;100907.88;;;11.72;55.82
7200;BME280;3641;49.082;8.200;2023-04-08T12:35:28;100905.84;;;11.74;55.94
7200;BME280;3641;49.082;8.200;2023-04-08T12:37:56;100904.38;;;11.87;58.04
7200;BME280;3641;49.082;8.200;2023-04-08T12:40:23;100910.22;;;11.92;55.44
7200;BME280;3641;49.082;8.200;2023-04-08T12:42:49;100899.63;;;11.89;58.55
7200;BME280;3641;49.082;8.200;2023-04-08T12:45:16;100905.97;;;11.81;55.45
7200;BME280;3641;49.082;8.200;2023-04-08T12:47:42;100905.09;;;11.89;55.77
7200;BME280;3641;49.082;8.200;2023-04-08T12:50:09;100904.75;;;11.92;55.43
7200;BME280;3641;49.082;8.200;2023-04-08T12:52:35;100907.97;;;11.95;57.04
7200;BME280;3641;49.082;8.200;2023-04-08T12:55:04;100900.19;;;12.07;56.12
7200;BME280;3641;49.082;8.200;2023-04-08T12:57:30;100898.81;;;12.11;56.20
7200;BME280;3641;49.082;8.200;2023-04-08T12:59:57;100897.53;;;12.22;55.87
7200;BME280;3641;49.082;8.200;2023-04-08T13:02:23;100900.06;;;12.24;57.91
7200;BME280;3641;49.082;8.200;2023-04-08T13:04:51;100901.00;;;12.16;55.73
7200;BME280;3641;49.082;8.200;2023-04-08T13:07:19;100894.81;;;12.22;56.56
7200;BME280;3641;49.082;8.200;2023-04-08T13:09:45;100900.22;;;12.30;56.07
7200;BME280;3641;49.082;8.200;2023-04-08T13:12:13;100898.09;;;12.17;54.11
7200;BME280;3641;49.082;8.200;2023-04-08T13:14:40;100898.91;;;12.18;53.69
7200;BME280;3641;49.082;8.200;2023-04-08T13:17:06;100895.72;;;12.14;56.35
7200;BME280;3641;49.082;8.200;2023-04-08T13:19:33;100906.75;;;11.98;53.38